PWSweather.com
Personal Weather Stations
Station Observations

ChardChardGB

Lat: 50.877408, Lon: -2.94964741

Elevation: 341

Station Type: WS3083

http://www.merriott-astro.co.uk/weather/index.htm

High Low Average
Temperature 52.3°F11.3°C 49.3°F9.6°C 50.5°F10.3°C
Dew Point 46.2°F7.9°C 44.3°F6.8°C 45.2°F7.3°C
Winds 11.3 mph 18.2 kmh 1.4 mph 2.3 kmh 8.0 mph E12.9 kmh E
Wind Gusts 18.3 mph29.5 kmh 4.5 mph7.2 kmh 10.0 mph16.1 kmh
Humidity 84% 78% 82%
Pressure 29.70 in1005.8 mb 29.40 in995.6 mb -
Precipitation 0.27 in6.9 mm - -
Hour Temp Dew Point Humidity Winds Wind Gusts Pressure Precip Precip Rate Daily Precip Total
12:00 AM 49.3°F9.6°C 44.3°F6.8°C 83% 1.4 mph SSW2.3 kmh SSW 5.4 mph8.7 kmh 29.45 in997.3 mb 0.12 in3.0 mm 0.00 in0.0 mm 0.12 in3.0 mm
12:10 AM 49.5°F9.7°C 44.5°F6.9°C 83% 2.1 mph S3.4 kmh S 5.4 mph8.7 kmh 29.44 in997.0 mb 0.12 in3.0 mm 0.00 in0.0 mm 0.02 in0.5 mm
12:20 AM 50.0°F10.0°C 45.4°F7.4°C 84% 2.7 mph E4.3 kmh E 5.4 mph8.7 kmh 29.44 in997.0 mb 0.11 in2.8 mm 0.00 in0.0 mm 0.04 in1.0 mm
12:30 AM 50.5°F10.3°C 45.9°F7.7°C 84% 6.2 mph SE10.0 kmh SE 9.2 mph14.8 kmh 29.44 in997.0 mb 0.09 in2.3 mm 0.00 in0.0 mm 0.05 in1.3 mm
12:40 AM 50.7°F10.4°C 46.1°F7.8°C 84% 5.5 mph ESE8.9 kmh ESE 10.7 mph17.2 kmh 29.43 in996.6 mb 0.11 in2.8 mm 0.12 in3.0 mm 0.07 in1.8 mm
12:50 AM 50.9°F10.5°C 46.2°F7.9°C 84% 5.5 mph SE8.9 kmh SE 9.8 mph15.8 kmh 29.43 in996.6 mb 0.13 in3.3 mm 0.12 in3.0 mm 0.11 in2.8 mm
01:00 AM 50.9°F10.5°C 46.2°F7.9°C 84% 5.6 mph E9.0 kmh E 9.8 mph15.8 kmh 29.43 in996.6 mb 0.13 in3.3 mm 0.00 in0.0 mm 0.13 in3.3 mm
01:10 AM 50.9°F10.5°C 46.2°F7.9°C 84% 5.4 mph ENE8.7 kmh ENE 9.8 mph15.8 kmh 29.42 in996.3 mb 0.12 in3.0 mm 0.00 in0.0 mm 0.14 in3.6 mm
01:20 AM 50.9°F10.5°C 46.2°F7.9°C 84% 5.5 mph ESE8.9 kmh ESE 7.6 mph12.2 kmh 29.43 in996.6 mb 0.12 in3.0 mm 0.00 in0.0 mm 0.15 in3.8 mm
01:30 AM 50.9°F10.5°C 46.2°F7.9°C 84% 5.5 mph SE8.9 kmh SE 9.2 mph14.8 kmh 29.42 in996.3 mb 0.12 in3.0 mm 0.00 in0.0 mm 0.17 in4.3 mm
01:40 AM 50.9°F10.5°C 46.2°F7.9°C 84% 6.3 mph E10.1 kmh E 11.4 mph18.3 kmh 29.42 in996.3 mb 0.11 in2.8 mm 0.00 in0.0 mm 0.18 in4.6 mm
01:50 AM 50.7°F10.4°C 46.1°F7.8°C 84% 7.1 mph SE11.4 kmh SE 10.7 mph17.2 kmh 29.42 in996.3 mb 0.07 in1.8 mm 0.00 in0.0 mm 0.18 in4.6 mm
02:00 AM 50.5°F10.3°C 45.9°F7.7°C 84% 7.5 mph NE12.1 kmh NE 18.3 mph29.5 kmh 29.41 in995.9 mb 0.05 in1.3 mm 0.00 in0.0 mm 0.18 in4.6 mm
02:10 AM 50.5°F10.3°C 45.9°F7.7°C 84% 6.9 mph ESE11.1 kmh ESE 12.1 mph19.5 kmh 29.41 in995.9 mb 0.05 in1.3 mm 0.00 in0.0 mm 0.19 in4.8 mm
02:20 AM 50.5°F10.3°C 45.9°F7.7°C 84% 4.7 mph ESE7.6 kmh ESE 7.6 mph12.2 kmh 29.42 in996.3 mb 0.04 in1.0 mm 0.00 in0.0 mm 0.19 in4.8 mm
02:30 AM 50.4°F10.2°C 45.7°F7.6°C 84% 5.1 mph E8.2 kmh E 8.3 mph13.4 kmh 29.41 in995.9 mb 0.04 in1.0 mm 0.00 in0.0 mm 0.20 in5.1 mm
02:40 AM 50.4°F10.2°C 45.7°F7.6°C 84% 5.0 mph E8.0 kmh E 6.9 mph11.1 kmh 29.41 in995.9 mb 0.02 in0.5 mm 0.00 in0.0 mm 0.20 in5.1 mm
02:50 AM 50.4°F10.2°C 45.7°F7.6°C 84% 5.1 mph SE8.2 kmh SE 11.4 mph18.3 kmh 29.41 in995.9 mb 0.04 in1.0 mm 0.12 in3.0 mm 0.21 in5.3 mm
03:00 AM 50.4°F10.2°C 45.4°F7.4°C 83% 5.5 mph E8.9 kmh E 6.9 mph11.1 kmh 29.41 in995.9 mb 0.04 in1.0 mm 0.00 in0.0 mm 0.21 in5.3 mm
03:10 AM 50.4°F10.2°C 45.4°F7.4°C 83% 5.1 mph ENE8.2 kmh ENE 7.6 mph12.2 kmh 29.41 in995.9 mb 0.02 in0.5 mm 0.00 in0.0 mm 0.21 in5.3 mm
03:20 AM 50.4°F10.2°C 45.4°F7.4°C 83% 5.9 mph E9.5 kmh E 8.3 mph13.4 kmh 29.41 in995.9 mb 0.02 in0.5 mm 0.00 in0.0 mm 0.21 in5.3 mm
03:30 AM 50.4°F10.2°C 45.4°F7.4°C 83% 5.9 mph ESE9.5 kmh ESE 7.6 mph12.2 kmh 29.41 in995.9 mb 0.02 in0.5 mm 0.00 in0.0 mm 0.22 in5.6 mm
03:40 AM 50.4°F10.2°C 45.4°F7.4°C 83% 4.0 mph E6.4 kmh E 6.0 mph9.7 kmh 29.41 in995.9 mb 0.02 in0.5 mm 0.00 in0.0 mm 0.22 in5.6 mm
03:50 AM 50.4°F10.2°C 45.4°F7.4°C 83% 5.4 mph ESE8.7 kmh ESE 12.1 mph19.5 kmh 29.40 in995.6 mb 0.01 in0.3 mm 0.00 in0.0 mm 0.22 in5.6 mm
04:00 AM 50.4°F10.2°C 45.4°F7.4°C 83% 5.7 mph ESE9.2 kmh ESE 7.6 mph12.2 kmh 29.41 in995.9 mb 0.01 in0.3 mm 0.00 in0.0 mm 0.22 in5.6 mm
04:10 AM 50.2°F10.1°C 45.2°F7.3°C 83% 4.2 mph SE6.8 kmh SE 6.0 mph9.7 kmh 29.41 in995.9 mb 0.02 in0.5 mm 0.06 in1.5 mm 0.24 in6.1 mm
04:20 AM 50.2°F10.1°C 45.2°F7.3°C 83% 5.9 mph ESE9.5 kmh ESE 9.2 mph14.8 kmh 29.41 in995.9 mb 0.02 in0.5 mm 0.00 in0.0 mm 0.24 in6.1 mm
04:30 AM 50.2°F10.1°C 45.2°F7.3°C 83% 4.3 mph E6.9 kmh E 6.0 mph9.7 kmh 29.41 in995.9 mb 0.01 in0.3 mm 0.00 in0.0 mm 0.24 in6.1 mm
04:40 AM 50.2°F10.1°C 45.2°F7.3°C 83% 5.1 mph ESE8.2 kmh ESE 7.6 mph12.2 kmh 29.41 in995.9 mb 0.01 in0.3 mm 0.00 in0.0 mm 0.24 in6.1 mm
04:50 AM 50.2°F10.1°C 45.2°F7.3°C 83% 6.2 mph ESE10.0 kmh ESE 9.2 mph14.8 kmh 29.40 in995.6 mb 0.01 in0.3 mm 0.00 in0.0 mm 0.24 in6.1 mm
05:00 AM 50.2°F10.1°C 45.2°F7.3°C 83% 3.6 mph E5.8 kmh E 9.2 mph14.8 kmh 29.41 in995.9 mb 0.01 in0.3 mm 0.00 in0.0 mm 0.25 in6.4 mm
05:10 AM 50.2°F10.1°C 44.9°F7.2°C 82% 4.8 mph E7.7 kmh E 8.3 mph13.4 kmh 29.41 in995.9 mb 0.01 in0.3 mm 0.00 in0.0 mm 0.25 in6.4 mm
05:20 AM 50.2°F10.1°C 44.9°F7.2°C 82% 4.6 mph E7.4 kmh E 9.2 mph14.8 kmh 29.41 in995.9 mb 0.01 in0.3 mm 0.00 in0.0 mm 0.25 in6.4 mm
05:30 AM 50.2°F10.1°C 44.9°F7.2°C 82% 2.8 mph E4.5 kmh E 6.9 mph11.1 kmh 29.41 in995.9 mb 0.01 in0.3 mm 0.00 in0.0 mm 0.25 in6.4 mm
05:40 AM 50.2°F10.1°C 44.9°F7.2°C 82% 4.0 mph E6.4 kmh E 6.9 mph11.1 kmh 29.42 in996.3 mb 0.02 in0.5 mm 0.06 in1.5 mm 0.26 in6.6 mm
05:50 AM 50.4°F10.2°C 45.1°F7.3°C 82% 4.8 mph E7.7 kmh E 7.6 mph12.2 kmh 29.41 in995.9 mb 0.02 in0.5 mm 0.00 in0.0 mm 0.26 in6.6 mm
06:00 AM 50.4°F10.2°C 45.1°F7.3°C 82% 4.4 mph E7.1 kmh E 8.3 mph13.4 kmh 29.42 in996.3 mb 0.02 in0.5 mm 0.00 in0.0 mm 0.27 in6.9 mm
06:10 AM 50.4°F10.2°C 45.1°F7.3°C 82% 5.5 mph NE8.9 kmh NE 9.2 mph14.8 kmh 29.42 in996.3 mb 0.02 in0.5 mm 0.00 in0.0 mm 0.27 in6.9 mm
06:20 AM 50.4°F10.2°C 45.1°F7.3°C 82% 4.7 mph E7.6 kmh E 7.6 mph12.2 kmh 29.43 in996.6 mb 0.02 in0.5 mm 0.00 in0.0 mm 0.27 in6.9 mm
06:30 AM 50.5°F10.3°C 45.3°F7.4°C 82% 6.4 mph E10.3 kmh E 11.4 mph18.3 kmh 29.43 in996.6 mb 0.02 in0.5 mm 0.00 in0.0 mm 0.27 in6.9 mm
06:40 AM 50.5°F10.3°C 45.3°F7.4°C 82% 11.3 mph E18.2 kmh E 11.4 mph18.3 kmh 29.44 in997.0 mb 0.01 in0.3 mm 0.00 in0.0 mm 0.27 in6.9 mm
06:50 AM 50.5°F10.3°C 45.3°F7.4°C 82% 11.3 mph E18.2 kmh E 11.4 mph18.3 kmh 29.44 in997.0 mb 0.01 in0.3 mm 0.00 in0.0 mm 0.27 in6.9 mm
07:00 AM 50.5°F10.3°C 45.3°F7.4°C 82% 11.3 mph E18.2 kmh E 11.4 mph18.3 kmh 29.45 in997.3 mb 0.00 in0.0 mm 0.00 in0.0 mm 0.27 in6.9 mm
07:10 AM 50.5°F10.3°C 45.3°F7.4°C 82% 11.3 mph E18.2 kmh E 11.4 mph18.3 kmh 29.44 in997.0 mb 0.00 in0.0 mm 0.00 in0.0 mm 0.27 in6.9 mm
07:20 AM 50.5°F10.3°C 45.3°F7.4°C 82% 11.3 mph E18.2 kmh E 11.4 mph18.3 kmh 29.45 in997.3 mb 0.00 in0.0 mm 0.00 in0.0 mm 0.27 in6.9 mm
07:30 AM 50.5°F10.3°C 45.3°F7.4°C 82% 11.3 mph E18.2 kmh E 11.4 mph18.3 kmh 29.45 in997.3 mb 0.00 in0.0 mm 0.00 in0.0 mm 0.27 in6.9 mm
07:40 AM 50.5°F10.3°C 45.3°F7.4°C 82% 11.3 mph E18.2 kmh E 11.4 mph18.3 kmh 29.46 in997.6 mb 0.00 in0.0 mm 0.00 in0.0 mm 0.27 in6.9 mm
07:50 AM 50.5°F10.3°C 45.3°F7.4°C 82% 11.3 mph E18.2 kmh E 11.4 mph18.3 kmh 29.46 in997.6 mb 0.00 in0.0 mm 0.00 in0.0 mm 0.27 in6.9 mm
08:00 AM 50.5°F10.3°C 45.3°F7.4°C 82% 11.3 mph E18.2 kmh E 11.4 mph18.3 kmh 29.46 in997.6 mb 0.00 in0.0 mm 0.00 in0.0 mm 0.27 in6.9 mm
08:10 AM 50.5°F10.3°C 45.3°F7.4°C 82% 11.3 mph E18.2 kmh E 11.4 mph18.3 kmh 29.47 in998.0 mb 0.00 in0.0 mm 0.00 in0.0 mm 0.27 in6.9 mm
08:20 AM 50.5°F10.3°C 45.3°F7.4°C 82% 11.3 mph E18.2 kmh E 11.4 mph18.3 kmh 29.47 in998.0 mb 0.00 in0.0 mm 0.00 in0.0 mm 0.27 in6.9 mm
08:30 AM 50.5°F10.3°C 45.3°F7.4°C 82% 11.3 mph E18.2 kmh E 11.4 mph18.3 kmh 29.47 in998.0 mb 0.00 in0.0 mm 0.00 in0.0 mm 0.27 in6.9 mm
08:40 AM 50.5°F10.3°C 45.3°F7.4°C 82% 11.3 mph E18.2 kmh E 11.4 mph18.3 kmh 29.48 in998.3 mb 0.00 in0.0 mm 0.00 in0.0 mm 0.27 in6.9 mm
08:50 AM 50.5°F10.3°C 45.3°F7.4°C 82% 11.3 mph E18.2 kmh E 11.4 mph18.3 kmh 29.48 in998.3 mb 0.00 in0.0 mm 0.00 in0.0 mm 0.27 in6.9 mm
09:00 AM 50.5°F10.3°C 45.3°F7.4°C 82% 11.3 mph E18.2 kmh E 11.4 mph18.3 kmh 29.48 in998.3 mb 0.00 in0.0 mm 0.00 in0.0 mm 0.27 in6.9 mm
09:10 AM 50.5°F10.3°C 45.3°F7.4°C 82% 11.3 mph E18.2 kmh E 11.4 mph18.3 kmh 29.49 in998.6 mb 0.00 in0.0 mm 0.00 in0.0 mm 0.27 in6.9 mm
09:20 AM 50.5°F10.3°C 45.3°F7.4°C 82% 11.3 mph E18.2 kmh E 11.4 mph18.3 kmh 29.49 in998.6 mb 0.00 in0.0 mm 0.00 in0.0 mm 0.27 in6.9 mm
09:30 AM 50.5°F10.3°C 45.3°F7.4°C 82% 11.3 mph E18.2 kmh E 11.4 mph18.3 kmh 29.50 in999.0 mb 0.00 in0.0 mm 0.00 in0.0 mm 0.27 in6.9 mm
09:40 AM 50.5°F10.3°C 45.3°F7.4°C 82% 11.3 mph E18.2 kmh E 11.4 mph18.3 kmh 29.50 in999.0 mb 0.00 in0.0 mm 0.00 in0.0 mm 0.27 in6.9 mm
09:50 AM 50.5°F10.3°C 45.3°F7.4°C 82% 11.3 mph E18.2 kmh E 11.4 mph18.3 kmh 29.50 in999.0 mb 0.00 in0.0 mm 0.00 in0.0 mm 0.27 in6.9 mm
10:00 AM 50.5°F10.3°C 45.3°F7.4°C 82% 11.3 mph E18.2 kmh E 11.4 mph18.3 kmh 29.51 in999.3 mb 0.00 in0.0 mm 0.00 in0.0 mm 0.27 in6.9 mm
10:10 AM 50.5°F10.3°C 45.3°F7.4°C 82% 11.3 mph E18.2 kmh E 11.4 mph18.3 kmh 29.50 in999.0 mb 0.00 in0.0 mm 0.00 in0.0 mm 0.27 in6.9 mm
10:20 AM 50.5°F10.3°C 45.3°F7.4°C 82% 11.3 mph E18.2 kmh E 11.4 mph18.3 kmh 29.52 in999.7 mb 0.00 in0.0 mm 0.00 in0.0 mm 0.27 in6.9 mm
10:30 AM 50.5°F10.3°C 45.3°F7.4°C 82% 11.3 mph E18.2 kmh E 11.4 mph18.3 kmh 29.52 in999.7 mb 0.00 in0.0 mm 0.00 in0.0 mm 0.27 in6.9 mm
10:40 AM 50.5°F10.3°C 45.3°F7.4°C 82% 11.3 mph E18.2 kmh E 11.4 mph18.3 kmh 29.52 in999.7 mb 0.00 in0.0 mm 0.00 in0.0 mm 0.27 in6.9 mm
10:50 AM 50.5°F10.3°C 45.3°F7.4°C 82% 11.3 mph E18.2 kmh E 11.4 mph18.3 kmh 29.53 in1000.0 mb 0.00 in0.0 mm 0.00 in0.0 mm 0.27 in6.9 mm
11:00 AM 50.5°F10.3°C 45.3°F7.4°C 82% 11.3 mph E18.2 kmh E 11.4 mph18.3 kmh 29.53 in1000.0 mb 0.00 in0.0 mm 0.00 in0.0 mm 0.27 in6.9 mm
11:10 AM 50.5°F10.3°C 45.3°F7.4°C 82% 11.3 mph E18.2 kmh E 11.4 mph18.3 kmh 29.54 in1000.3 mb 0.00 in0.0 mm 0.00 in0.0 mm 0.27 in6.9 mm
11:20 AM 50.5°F10.3°C 45.3°F7.4°C 82% 11.3 mph E18.2 kmh E 11.4 mph18.3 kmh 29.54 in1000.3 mb 0.00 in0.0 mm 0.00 in0.0 mm 0.27 in6.9 mm
11:30 AM 50.5°F10.3°C 45.3°F7.4°C 82% 11.3 mph E18.2 kmh E 11.4 mph18.3 kmh 29.54 in1000.3 mb 0.00 in0.0 mm 0.00 in0.0 mm 0.27 in6.9 mm
11:40 AM 50.5°F10.3°C 45.3°F7.4°C 82% 11.3 mph E18.2 kmh E 11.4 mph18.3 kmh 29.54 in1000.3 mb 0.00 in0.0 mm 0.00 in0.0 mm 0.27 in6.9 mm
11:50 AM 50.5°F10.3°C 45.3°F7.4°C 82% 11.3 mph E18.2 kmh E 11.4 mph18.3 kmh 29.54 in1000.3 mb 0.00 in0.0 mm 0.00 in0.0 mm 0.27 in6.9 mm
12:00 PM 50.5°F10.3°C 45.3°F7.4°C 82% 11.3 mph E18.2 kmh E 11.4 mph18.3 kmh 29.55 in1000.7 mb 0.00 in0.0 mm 0.00 in0.0 mm 0.27 in6.9 mm
12:10 PM 50.5°F10.3°C 45.3°F7.4°C 82% 11.3 mph E18.2 kmh E 11.4 mph18.3 kmh 29.55 in1000.7 mb 0.00 in0.0 mm 0.00 in0.0 mm 0.27 in6.9 mm
12:20 PM 50.5°F10.3°C 45.3°F7.4°C 82% 11.3 mph E18.2 kmh E 11.4 mph18.3 kmh 29.55 in1000.7 mb 0.00 in0.0 mm 0.00 in0.0 mm 0.27 in6.9 mm
12:30 PM 50.5°F10.3°C 45.3°F7.4°C 82% 11.3 mph E18.2 kmh E 11.4 mph18.3 kmh 29.56 in1001.0 mb 0.00 in0.0 mm 0.00 in0.0 mm 0.27 in6.9 mm
12:40 PM 50.5°F10.3°C 45.3°F7.4°C 82% 11.3 mph E18.2 kmh E 11.4 mph18.3 kmh 29.56 in1001.0 mb 0.00 in0.0 mm 0.00 in0.0 mm 0.27 in6.9 mm
12:50 PM 50.5°F10.3°C 45.3°F7.4°C 82% 11.3 mph E18.2 kmh E 11.4 mph18.3 kmh 29.56 in1001.0 mb 0.00 in0.0 mm 0.00 in0.0 mm 0.27 in6.9 mm
01:00 PM 50.5°F10.3°C 45.3°F7.4°C 82% 11.3 mph E18.2 kmh E 11.4 mph18.3 kmh 29.57 in1001.4 mb 0.00 in0.0 mm 0.00 in0.0 mm 0.27 in6.9 mm
01:10 PM 50.5°F10.3°C 45.3°F7.4°C 82% 11.3 mph E18.2 kmh E 11.4 mph18.3 kmh 29.57 in1001.4 mb 0.00 in0.0 mm 0.00 in0.0 mm 0.27 in6.9 mm
01:20 PM 50.5°F10.3°C 45.3°F7.4°C 82% 11.3 mph E18.2 kmh E 11.4 mph18.3 kmh 29.56 in1001.0 mb 0.00 in0.0 mm 0.00 in0.0 mm 0.27 in6.9 mm
01:30 PM 50.5°F10.3°C 45.3°F7.4°C 82% 11.3 mph E18.2 kmh E 11.4 mph18.3 kmh 29.57 in1001.4 mb 0.00 in0.0 mm 0.00 in0.0 mm 0.27 in6.9 mm
01:40 PM 50.5°F10.3°C 45.3°F7.4°C 82% 11.3 mph E18.2 kmh E 11.4 mph18.3 kmh 29.56 in1001.0 mb 0.00 in0.0 mm 0.00 in0.0 mm 0.27 in6.9 mm
01:50 PM 50.5°F10.3°C 45.3°F7.4°C 82% 11.3 mph E18.2 kmh E 11.4 mph18.3 kmh 29.56 in1001.0 mb 0.00 in0.0 mm 0.00 in0.0 mm 0.27 in6.9 mm
02:00 PM 50.5°F10.3°C 45.3°F7.4°C 82% 11.3 mph E18.2 kmh E 11.4 mph18.3 kmh 29.57 in1001.4 mb 0.00 in0.0 mm 0.00 in0.0 mm 0.27 in6.9 mm
02:10 PM 50.5°F10.3°C 45.3°F7.4°C 82% 11.3 mph E18.2 kmh E 11.4 mph18.3 kmh 29.57 in1001.4 mb 0.00 in0.0 mm 0.00 in0.0 mm 0.27 in6.9 mm
02:20 PM 50.5°F10.3°C 45.3°F7.4°C 82% 11.3 mph E18.2 kmh E 11.4 mph18.3 kmh 29.57 in1001.4 mb 0.00 in0.0 mm 0.00 in0.0 mm 0.27 in6.9 mm
02:30 PM 50.5°F10.3°C 45.3°F7.4°C 82% 11.3 mph E18.2 kmh E 11.4 mph18.3 kmh 29.57 in1001.4 mb 0.00 in0.0 mm 0.00 in0.0 mm 0.27 in6.9 mm
02:40 PM 50.5°F10.3°C 45.3°F7.4°C 82% 11.3 mph E18.2 kmh E 11.4 mph18.3 kmh 29.57 in1001.4 mb 0.00 in0.0 mm 0.00 in0.0 mm 0.27 in6.9 mm
02:50 PM 50.5°F10.3°C 45.3°F7.4°C 82% 11.3 mph E18.2 kmh E 11.4 mph18.3 kmh 29.57 in1001.4 mb 0.00 in0.0 mm 0.00 in0.0 mm 0.27 in6.9 mm
03:00 PM 50.5°F10.3°C 45.3°F7.4°C 82% 11.3 mph E18.2 kmh E 11.4 mph18.3 kmh 29.57 in1001.4 mb 0.00 in0.0 mm 0.00 in0.0 mm 0.27 in6.9 mm
03:10 PM 50.5°F10.3°C 45.3°F7.4°C 82% 11.3 mph E18.2 kmh E 11.4 mph18.3 kmh 29.57 in1001.4 mb 0.00 in0.0 mm 0.00 in0.0 mm 0.27 in6.9 mm
03:20 PM 50.5°F10.3°C 45.3°F7.4°C 82% 11.3 mph E18.2 kmh E 11.4 mph18.3 kmh 29.57 in1001.4 mb 0.00 in0.0 mm 0.00 in0.0 mm 0.27 in6.9 mm
03:30 PM 50.5°F10.3°C 45.3°F7.4°C 82% 11.3 mph E18.2 kmh E 11.4 mph18.3 kmh 29.58 in1001.7 mb 0.00 in0.0 mm 0.00 in0.0 mm 0.27 in6.9 mm
03:40 PM 50.5°F10.3°C 45.3°F7.4°C 82% 11.3 mph E18.2 kmh E 11.4 mph18.3 kmh 29.58 in1001.7 mb 0.00 in0.0 mm 0.00 in0.0 mm 0.27 in6.9 mm
03:50 PM 50.5°F10.3°C 45.3°F7.4°C 82% 11.3 mph E18.2 kmh E 11.4 mph18.3 kmh 29.58 in1001.7 mb 0.00 in0.0 mm 0.00 in0.0 mm 0.27 in6.9 mm
04:00 PM 50.5°F10.3°C 45.3°F7.4°C 82% 11.3 mph E18.2 kmh E 11.4 mph18.3 kmh 29.59 in1002.0 mb 0.00 in0.0 mm 0.00 in0.0 mm 0.27 in6.9 mm
04:10 PM 50.5°F10.3°C 45.3°F7.4°C 82% 11.3 mph E18.2 kmh E 11.4 mph18.3 kmh 29.59 in1002.0 mb 0.00 in0.0 mm 0.00 in0.0 mm 0.27 in6.9 mm
04:20 PM 50.5°F10.3°C 45.3°F7.4°C 82% 11.3 mph E18.2 kmh E 11.4 mph18.3 kmh 29.60 in1002.4 mb 0.00 in0.0 mm 0.00 in0.0 mm 0.27 in6.9 mm
04:30 PM 50.5°F10.3°C 45.3°F7.4°C 82% 11.3 mph E18.2 kmh E 11.4 mph18.3 kmh 29.60 in1002.4 mb 0.00 in0.0 mm 0.00 in0.0 mm 0.27 in6.9 mm
04:40 PM 50.5°F10.3°C 45.3°F7.4°C 82% 11.3 mph E18.2 kmh E 11.4 mph18.3 kmh 29.59 in1002.0 mb 0.00 in0.0 mm 0.00 in0.0 mm 0.27 in6.9 mm
04:50 PM 50.5°F10.3°C 45.3°F7.4°C 82% 11.3 mph E18.2 kmh E 11.4 mph18.3 kmh 29.59 in1002.0 mb 0.00 in0.0 mm 0.00 in0.0 mm 0.27 in6.9 mm
05:00 PM 50.5°F10.3°C 45.3°F7.4°C 82% 11.3 mph E18.2 kmh E 11.4 mph18.3 kmh 29.60 in1002.4 mb 0.00 in0.0 mm 0.00 in0.0 mm 0.27 in6.9 mm
05:10 PM 50.5°F10.3°C 45.3°F7.4°C 82% 11.3 mph E18.2 kmh E 11.4 mph18.3 kmh 29.60 in1002.4 mb 0.00 in0.0 mm 0.00 in0.0 mm 0.27 in6.9 mm
05:20 PM 50.5°F10.3°C 45.3°F7.4°C 82% 11.3 mph E18.2 kmh E 11.4 mph18.3 kmh 29.61 in1002.7 mb 0.00 in0.0 mm 0.00 in0.0 mm 0.27 in6.9 mm
05:30 PM 50.5°F10.3°C 45.3°F7.4°C 82% 11.3 mph E18.2 kmh E 11.4 mph18.3 kmh 29.61 in1002.7 mb 0.00 in0.0 mm 0.00 in0.0 mm 0.27 in6.9 mm
05:40 PM 52.3°F11.3°C 45.7°F7.6°C 78% 7.3 mph NE11.7 kmh NE 7.6 mph12.2 kmh 29.61 in1002.7 mb 0.00 in0.0 mm 0.00 in0.0 mm 0.27 in6.9 mm
05:50 PM 52.3°F11.3°C 45.7°F7.6°C 78% 6.1 mph NE9.8 kmh NE 9.2 mph14.8 kmh 29.62 in1003.0 mb 0.00 in0.0 mm 0.00 in0.0 mm 0.27 in6.9 mm
06:00 PM 52.3°F11.3°C 45.7°F7.6°C 78% 6.0 mph NE9.7 kmh NE 6.0 mph9.7 kmh 29.62 in1003.0 mb 0.00 in0.0 mm 0.00 in0.0 mm 0.27 in6.9 mm
06:10 PM 52.3°F11.3°C 45.7°F7.6°C 78% 6.0 mph NE9.7 kmh NE 6.0 mph9.7 kmh 29.63 in1003.4 mb 0.00 in0.0 mm 0.00 in0.0 mm 0.27 in6.9 mm
06:40 PM 51.8°F11.0°C 45.2°F7.3°C 78% 8.8 mph NE14.2 kmh NE 11.4 mph18.3 kmh 29.64 in1003.7 mb 0.00 in0.0 mm 0.00 in0.0 mm 0.20 in5.1 mm
06:50 PM 51.6°F10.9°C 45.0°F7.2°C 78% 9.8 mph ENE15.8 kmh ENE 13.6 mph21.9 kmh 29.65 in1004.1 mb 0.00 in0.0 mm 0.00 in0.0 mm 0.20 in5.1 mm
07:00 PM 51.4°F10.8°C 45.2°F7.3°C 79% 8.8 mph E14.2 kmh E 11.4 mph18.3 kmh 29.65 in1004.1 mb 0.00 in0.0 mm 0.00 in0.0 mm 0.20 in5.1 mm
07:10 PM 51.4°F10.8°C 45.2°F7.3°C 79% 8.9 mph ENE14.3 kmh ENE 13.0 mph20.9 kmh 29.66 in1004.4 mb 0.00 in0.0 mm 0.00 in0.0 mm 0.20 in5.1 mm
07:20 PM 51.4°F10.8°C 45.2°F7.3°C 79% 6.3 mph NE10.1 kmh NE 9.8 mph15.8 kmh 29.66 in1004.4 mb 0.00 in0.0 mm 0.00 in0.0 mm 0.20 in5.1 mm
07:30 PM 51.1°F10.6°C 45.1°F7.3°C 80% 9.2 mph NE14.8 kmh NE 15.2 mph24.5 kmh 29.67 in1004.7 mb 0.02 in0.5 mm 0.12 in3.0 mm 0.02 in0.5 mm
07:40 PM 50.9°F10.5°C 45.0°F7.2°C 80% 5.8 mph NE9.3 kmh NE 6.0 mph9.7 kmh 29.68 in1005.1 mb 0.02 in0.5 mm 0.00 in0.0 mm 0.02 in0.5 mm
07:50 PM 50.7°F10.4°C 44.8°F7.1°C 80% 6.7 mph NE10.8 kmh NE 9.2 mph14.8 kmh 29.68 in1005.1 mb 0.02 in0.5 mm 0.00 in0.0 mm 0.02 in0.5 mm
08:00 PM 50.7°F10.4°C 45.1°F7.3°C 81% 7.9 mph NE12.7 kmh NE 10.7 mph17.2 kmh 29.68 in1005.1 mb 0.02 in0.5 mm 0.00 in0.0 mm 0.02 in0.5 mm
08:10 PM 50.7°F10.4°C 45.1°F7.3°C 81% 7.6 mph NE12.2 kmh NE 7.6 mph12.2 kmh 29.68 in1005.1 mb 0.02 in0.5 mm 0.00 in0.0 mm 0.02 in0.5 mm
08:20 PM 50.7°F10.4°C 45.1°F7.3°C 81% 7.6 mph NE12.2 kmh NE 7.6 mph12.2 kmh 29.68 in1005.1 mb 0.02 in0.5 mm 0.00 in0.0 mm 0.02 in0.5 mm
08:30 PM 50.5°F10.3°C 44.9°F7.2°C 81% 7.6 mph NE12.2 kmh NE 7.6 mph12.2 kmh 29.68 in1005.1 mb 0.00 in0.0 mm 0.00 in0.0 mm 0.22 in5.6 mm
08:40 PM 50.5°F10.3°C 44.9°F7.2°C 81% 7.6 mph NE12.2 kmh NE 7.6 mph12.2 kmh 29.68 in1005.1 mb 0.00 in0.0 mm 0.00 in0.0 mm 0.22 in5.6 mm
08:50 PM 50.5°F10.3°C 44.9°F7.2°C 81% 7.6 mph NE12.2 kmh NE 7.6 mph12.2 kmh 29.68 in1005.1 mb 0.00 in0.0 mm 0.00 in0.0 mm 0.22 in5.6 mm
09:00 PM 50.5°F10.3°C 44.9°F7.2°C 81% 7.6 mph NE12.2 kmh NE 7.6 mph12.2 kmh 29.69 in1005.4 mb 0.00 in0.0 mm 0.00 in0.0 mm 0.22 in5.6 mm
09:10 PM 50.0°F10.0°C 44.4°F6.9°C 81% 3.7 mph NE6.0 kmh NE 6.9 mph11.1 kmh 29.68 in1005.1 mb 0.00 in0.0 mm 0.00 in0.0 mm 0.22 in5.6 mm
09:20 PM 50.0°F10.0°C 44.4°F6.9°C 81% 5.3 mph ENE8.5 kmh ENE 6.9 mph11.1 kmh 29.69 in1005.4 mb 0.00 in0.0 mm 0.00 in0.0 mm 0.22 in5.6 mm
09:30 PM 50.0°F10.0°C 44.4°F6.9°C 81% 4.9 mph E7.9 kmh E 6.9 mph11.1 kmh 29.69 in1005.4 mb 0.00 in0.0 mm 0.00 in0.0 mm 0.22 in5.6 mm
09:40 PM 50.0°F10.0°C 44.4°F6.9°C 81% 4.5 mph E7.2 kmh E 4.5 mph7.2 kmh 29.69 in1005.4 mb 0.00 in0.0 mm 0.00 in0.0 mm 0.22 in5.6 mm
09:50 PM 50.0°F10.0°C 44.4°F6.9°C 81% 4.5 mph E7.2 kmh E 4.5 mph7.2 kmh 29.70 in1005.8 mb 0.00 in0.0 mm 0.00 in0.0 mm 0.22 in5.6 mm
10:00 PM 50.0°F10.0°C 44.4°F6.9°C 81% 4.5 mph E7.2 kmh E 4.5 mph7.2 kmh 29.70 in1005.8 mb 0.00 in0.0 mm 0.00 in0.0 mm 0.22 in5.6 mm
10:10 PM 50.0°F10.0°C 44.4°F6.9°C 81% 4.5 mph E7.2 kmh E 4.5 mph7.2 kmh 29.70 in1005.8 mb 0.00 in0.0 mm 0.00 in0.0 mm 0.22 in5.6 mm
10:20 PM 50.0°F10.0°C 44.4°F6.9°C 81% 4.5 mph E7.2 kmh E 4.5 mph7.2 kmh 29.70 in1005.8 mb 0.00 in0.0 mm 0.00 in0.0 mm 0.22 in5.6 mm
10:30 PM 50.0°F10.0°C 44.4°F6.9°C 81% 4.5 mph E7.2 kmh E 4.5 mph7.2 kmh 29.70 in1005.8 mb 0.00 in0.0 mm 0.00 in0.0 mm 0.22 in5.6 mm
10:40 PM 50.0°F10.0°C 44.4°F6.9°C 81% 4.5 mph E7.2 kmh E 4.5 mph7.2 kmh 29.70 in1005.8 mb 0.00 in0.0 mm 0.00 in0.0 mm 0.22 in5.6 mm
10:50 PM 50.0°F10.0°C 44.4°F6.9°C 81% 4.5 mph E7.2 kmh E 4.5 mph7.2 kmh 29.70 in1005.8 mb 0.00 in0.0 mm 0.00 in0.0 mm 0.22 in5.6 mm
11:00 PM 50.0°F10.0°C 44.4°F6.9°C 81% 4.5 mph E7.2 kmh E 4.5 mph7.2 kmh 29.70 in1005.8 mb 0.00 in0.0 mm 0.00 in0.0 mm 0.22 in5.6 mm
11:10 PM 50.0°F10.0°C 44.4°F6.9°C 81% 4.5 mph E7.2 kmh E 4.5 mph7.2 kmh 29.70 in1005.8 mb 0.00 in0.0 mm 0.00 in0.0 mm 0.22 in5.6 mm
11:20 PM 50.0°F10.0°C 44.4°F6.9°C 81% 4.5 mph E7.2 kmh E 4.5 mph7.2 kmh 29.70 in1005.8 mb 0.00 in0.0 mm 0.00 in0.0 mm 0.22 in5.6 mm
11:30 PM 50.0°F10.0°C 44.4°F6.9°C 81% 4.5 mph E7.2 kmh E 4.5 mph7.2 kmh 29.70 in1005.8 mb 0.00 in0.0 mm 0.00 in0.0 mm 0.22 in5.6 mm
11:40 PM 50.0°F10.0°C 44.4°F6.9°C 81% 4.5 mph E7.2 kmh E 4.5 mph7.2 kmh 29.70 in1005.8 mb 0.00 in0.0 mm 0.00 in0.0 mm 0.22 in5.6 mm
11:50 PM 50.0°F10.0°C 44.4°F6.9°C 81% 4.5 mph E7.2 kmh E 4.5 mph7.2 kmh 29.70 in1005.8 mb 0.00 in0.0 mm 0.00 in0.0 mm 0.22 in5.6 mm